Marathon, FL (33050)

6:34 AM EST on February 11, 2016 (GMT -0500)
Key Colony Beach FL | | Change Station
CLOSE
Current Station
Personal Weather Station
Location: Marathon, FL
Elevation: 10 ft
Nearby Weather Stations

Elev 10 ft 24.72 °N, 81.02 °W | Updated 4 minutes ago

Clear
Clear
54.5 °F
Feels Like 54.5 °F
N
3.0
Wind Variable Wind from North
Gusts 3.0 mph

Today
High -- | Low -- °F
--% Chance of Precip.
Yesterday
High -- | Low -- °F
Precip. -- in
Pressure 30.27 in
Visibility 10.0 miles
Clouds Few 2500 ft
Mostly Cloudy 25000 ft
Dew Point 54 °F
Humidity 100%
Rainfall 0.00 in
Snow Depth Not available.
7:00 AM 6:15 PM
Waxing Crescent, 11% visible
SPECI KNQX 111058Z 03006KT 10SM FEW025 BKN250 14/09 A3027 RMK AO2 T01440094 $
Pressure 30.27 in
Visibility 10.0 miles
Clouds Few 2500 ft
Mostly Cloudy 25000 ft
Dew Point 54 °F
Humidity 100%
Rainfall 0.00 in
Snow Depth Not available.
7:00 AM 6:15 PM
Waxing Crescent, 11% visible
SPECI KNQX 111058Z 03006KT 10SM FEW025 BKN250 14/09 A3027 RMK AO2 T01440094 $

10-Day Weather Forecast

Almanac

Astronomy

Feb. 11, 2016 Rise Set
Actual Time
Civil Twilight
Nautical Twilight
Astronomical Twilight
Moon
Length of Visible Light
Length of Day
Tomorrow will be .
, % of the Moon is Illuminated

Today's Extremes

State Highs State Lows

Community

WunderPhotos

Upload Photos

1,892,030 photos uploaded!

WunderBlog® & News

Nearby

Air Quality

  Air Quality AQ Index Pollutant
Not available.

Snow Depth

Station Depth Elevation

Earthquake Activity

City Distance Mag. Time & Date
Minimum magnitude displayed is 2.5.

Coastal Water Temperatures

Place Temperature

Stations

Nearby Weather Stations

Station Location Temp. Windchill Dew Point Humidity Wind Precip. Elev Updated Type
                   

Watches & Warnings

There are currently no watches in effect.